| time (UTC) | temp F | wind direction | speed MPH | gust MPH | rain 1hr in | rain 24hr in | rain mn in | humidity % | barometer mb |
| 20260901233102 | 84 | 360 | 7.0 | 17.0 | 0.00 | 0.02 | 0.00 | 31 | 1003.4 |
| 20260901231558 | 84 | 5 | 13.0 | 21.0 | 0.00 | 0.02 | 0.00 | 31 | 1003.4 |
| 20260901230136 | 86 | 336 | 15.0 | 20.0 | 0.00 | 0.02 | 0.00 | 28 | 1003.5 |
| 20260901224555 | 86 | 342 | 7.0 | 14.0 | 0.00 | 0.02 | 0.00 | 27 | 1003.4 |
| 20260901223110 | 84 | 313 | 12.0 | 23.0 | 0.00 | 0.02 | 0.00 | 29 | 1003.5 |
| 20260901221552 | 85 | 320 | 11.0 | 28.0 | 0.00 | 0.02 | 0.00 | 27 | 1003.2 |
| 20260901220059 | 87 | 317 | 10.0 | 16.0 | 0.00 | 0.02 | 0.00 | 26 | 1003.3 |
| 20260901214549 | 88 | 294 | 11.0 | 16.0 | 0.00 | 0.02 | 0.00 | 26 | 1003.4 |
| 20260901213049 | 87 | 317 | 9.0 | 15.0 | 0.00 | 0.02 | 0.00 | 26 | 1003.7 |
| 20260901211552 | 87 | 275 | 11.0 | 18.0 | 0.00 | 0.02 | 0.00 | 27 | 1003.9 |
| 20260901210039 | 86 | 248 | 7.0 | 17.0 | 0.00 | 0.02 | 0.00 | 28 | 1004.3 |
| 20260901204543 | 82 | 307 | 5.0 | 12.0 | 0.00 | 0.02 | 0.00 | 31 | 1004.6 |
| 20260901203035 | 80 | 221 | 7.0 | 15.0 | 0.00 | 0.02 | 0.00 | 33 | 1004.9 |
| 20260901201533 | 82 | 303 | 14.0 | 23.0 | 0.00 | 0.02 | 0.00 | 30 | 1005.1 |
| 20260901200135 | 84 | 140 | 2.0 | 6.0 | 0.00 | 0.02 | 0.00 | 34 | 1004.8 |
| 20260901194526 | 84 | 132 | 4.0 | 10.0 | 0.00 | 0.02 | 0.00 | 38 | 1004.6 |
| 20260901193025 | 82 | 139 | 5.0 | 10.0 | 0.00 | 0.02 | 0.00 | 37 | 1004.6 |
| 20260901191526 | 82 | 154 | 5.0 | 14.0 | 0.00 | 0.02 | 0.00 | 38 | 1004.8 |
| 20260901190104 | 82 | 134 | 7.0 | 11.0 | 0.00 | 0.02 | 0.00 | 38 | 1005.1 |
| 20260901184547 | 81 | 108 | 6.0 | 15.0 | 0.00 | 0.02 | 0.00 | 39 | 1005.3 |
| 20260901183048 | 80 | 152 | 4.0 | 13.0 | 0.00 | 0.02 | 0.00 | 44 | 1005.7 |
| 20260901181549 | 80 | 117 | 9.0 | 14.0 | 0.00 | 0.02 | 0.00 | 43 | 1005.8 |
| 20260901180041 | 80 | 113 | 7.0 | 13.0 | 0.00 | 0.02 | 0.00 | 43 | 1006.0 |
| 20260901174538 | 79 | 123 | 7.0 | 10.0 | 0.00 | 0.02 | 0.00 | 43 | 1006.1 |
| 20260901173045 | 78 | 92 | 5.0 | 12.0 | 0.00 | 0.02 | 0.00 | 47 | 1006.4 |
| 20260901171534 | 78 | 120 | 3.0 | 9.0 | 0.00 | 0.02 | 0.00 | 48 | 1006.4 |
| 20260901170032 | 78 | 191 | 6.0 | 10.0 | 0.00 | 0.02 | 0.00 | 51 | 1006.5 |
| 20260901164529 | 77 | 190 | 6.0 | 8.0 | 0.00 | 0.02 | 0.00 | 53 | 1006.5 |
| 20260901163027 | 76 | 112 | 3.0 | 7.0 | 0.00 | 0.02 | 0.00 | 53 | 1006.6 |
| 20260901161523 | 75 | 136 | 3.0 | 5.0 | 0.00 | 0.02 | 0.00 | 52 | 1006.5 |
| 20260901160019 | 72 | 116 | 1.0 | 4.0 | 0.00 | 0.02 | 0.00 | 60 | 1006.8 |
| 20260901154514 | 69 | 355 | 0.0 | 2.0 | 0.00 | 0.02 | 0.00 | 62 | 1006.9 |
| 20260901153018 | 67 | 355 | 0.0 | 2.0 | 0.00 | 0.02 | 0.00 | 66 | 1007.1 |
| 20260901151508 | 67 | 360 | 1.0 | 3.0 | 0.00 | 0.02 | 0.00 | 68 | 1007.1 |
| 20260901150004 | 65 | 43 | 2.0 | 3.0 | 0.00 | 0.02 | 0.00 | 71 | 1007.2 |
| 20260901144507 | 65 | 46 | 1.0 | 3.0 | 0.00 | 0.02 | 0.00 | 74 | 1007.2 |
| 20260901143009 | 64 | 46 | 1.0 | 3.0 | 0.00 | 0.02 | 0.00 | 75 | 1007.3 |
| 20260901141511 | 63 | 32 | 1.0 | 4.0 | 0.00 | 0.02 | 0.00 | 76 | 1007.4 |
| 20260901140007 | 63 | 44 | 3.0 | 5.0 | 0.00 | 0.02 | 0.00 | 77 | 1007.4 |
| 20260901134506 | 62 | 38 | 3.0 | 7.0 | 0.00 | 0.02 | 0.00 | 77 | 1007.2 |
| 20260901133007 | 62 | 5 | 5.0 | 10.0 | 0.00 | 0.02 | 0.00 | 77 | 1007.2 |
| 20260901131507 | 61 | 22 | 4.0 | 9.0 | 0.00 | 0.02 | 0.00 | 78 | 1006.8 |
| 20260901130002 | 61 | 360 | 3.0 | 6.0 | 0.00 | 0.02 | 0.00 | 78 | 1006.4 |
| 20260901124559 | 61 | 9 | 4.0 | 6.0 | 0.00 | 0.02 | 0.00 | 77 | 1006.4 |
| 20260901123057 | 62 | 360 | 3.0 | 4.0 | 0.00 | 0.02 | 0.00 | 73 | 1006.2 |
| 20260901121609 | 62 | 309 | 5.0 | 6.0 | 0.00 | 0.02 | 0.00 | 72 | 1006.2 |
| 20260901120104 | 63 | 264 | 0.0 | 1.0 | 0.00 | 0.02 | 0.00 | 69 | 1006.1 |
| 20260901114600 | 63 | 264 | 2.0 | 4.0 | 0.00 | 0.02 | 0.00 | 70 | 1006.0 |
| 20260901113052 | 62 | 198 | 1.0 | 4.0 | 0.00 | 0.02 | 0.00 | 71 | 1005.9 |
| 20260901111553 | 62 | 198 | 1.0 | 5.0 | 0.00 | 0.02 | 0.00 | 73 | 1006.0 |
| 20260901110048 | 62 | 189 | 3.0 | 5.0 | 0.00 | 0.02 | 0.00 | 74 | 1006.1 |
| 20260901104546 | 62 | 198 | 2.0 | 3.0 | 0.00 | 0.02 | 0.00 | 72 | 1006.2 |
| 20260901103044 | 63 | 198 | 0.0 | 3.0 | 0.00 | 0.02 | 0.00 | 72 | 1006.1 |
| 20260901101546 | 63 | 198 | 1.0 | 3.0 | 0.00 | 0.02 | 0.00 | 71 | 1006.3 |
| 20260901100041 | 63 | 198 | 0.0 | 3.0 | 0.00 | 0.02 | 0.00 | 72 | 1006.3 |
| 20260901094540 | 63 | 198 | 3.0 | 5.0 | 0.00 | 0.02 | 0.00 | 72 | 1006.5 |
| 20260901093054 | 63 | 195 | 3.0 | 5.0 | 0.00 | 0.02 | 0.00 | 72 | 1006.5 |
| 20260901091555 | 63 | 204 | 2.0 | 6.0 | 0.00 | 0.02 | 0.00 | 72 | 1006.8 |
| 20260901090035 | 64 | 233 | 0.0 | 4.0 | 0.00 | 0.02 | 0.00 | 72 | 1006.7 |
| 20260901084535 | 64 | 225 | 0.0 | 4.0 | 0.00 | 0.02 | 0.00 | 71 | 1006.8 |
| 20260901083033 | 63 | 199 | 0.0 | 2.0 | 0.00 | 0.02 | 0.00 | 73 | 1006.8 |
| 20260901081532 | 63 | 197 | 0.0 | 5.0 | 0.00 | 0.02 | 0.00 | 76 | 1007.1 |
| 20260901080031 | 64 | 191 | 3.0 | 5.0 | 0.00 | 0.02 | 0.00 | 75 | 1007.2 |
| 20260901074531 | 64 | 199 | 3.0 | 5.0 | 0.00 | 0.02 | 0.00 | 76 | 1007.5 |
| 20260901073029 | 64 | 215 | 2.0 | 5.0 | 0.00 | 0.02 | 0.00 | 77 | 1007.6 |
| 20260901071529 | 64 | 194 | 3.0 | 7.0 | 0.00 | 0.02 | 0.00 | 76 | 1007.4 |
| 20260901070029 | 64 | 144 | 4.0 | 6.0 | 0.00 | 0.02 | 0.00 | 74 | 1007.3 |
| 20260901064523 | 64 | 191 | 7.0 | 9.0 | 0.00 | 0.02 | 0.00 | 75 | 1007.3 |
| 20260901063020 | 64 | 200 | 2.0 | 4.0 | 0.00 | 0.02 | 0.00 | 79 | 1006.8 |
| 20260901061516 | 64 | 199 | 3.0 | 4.0 | 0.00 | 0.02 | 0.00 | 77 | 1006.8 |
| 20260901060014 | 65 | 231 | 0.0 | 3.0 | 0.00 | 0.02 | 0.02 | 75 | 1006.7 |
| 20260901054514 | 64 | 231 | 0.0 | 3.0 | 0.00 | 0.02 | 0.02 | 74 | 1006.9 |
| 20260901053124 | 63 | 231 | 2.0 | 4.0 | 0.00 | 0.02 | 0.02 | 76 | 1007.1 |
| 20260901051512 | 63 | 197 | 2.0 | 5.0 | 0.00 | 0.02 | 0.02 | 80 | 1007.1 |
| 20260901050012 | 64 | 271 | 0.0 | 1.0 | 0.00 | 0.02 | 0.02 | 79 | 1007.2 |
| 20260901044512 | 63 | 288 | 2.0 | 5.0 | 0.02 | 0.02 | 0.02 | 77 | 1007.0 |
| 20260901043011 | 63 | 19 | 4.0 | 6.0 | 0.02 | 0.02 | 0.02 | 79 | 1006.8 |
| 20260901041508 | 64 | 171 | 0.0 | 3.0 | 0.02 | 0.02 | 0.02 | 77 | 1008.1 |
| 20260901040007 | 65 | 179 | 5.0 | 15.0 | 0.02 | 0.02 | 0.02 | 74 | 1009.1 |
| 20260901034510 | 68 | 175 | 9.0 | 21.0 | 0.00 | 0.00 | 0.00 | 65 | 1009.3 |
| 20260901033004 | 73 | 159 | 15.0 | 25.0 | 0.00 | 0.00 | 0.00 | 54 | 1009.1 |
| 20260901031504 | 74 | 340 | 5.0 | 9.0 | 0.00 | 0.00 | 0.00 | 43 | 1007.5 |
| 20260901030002 | 73 | 355 | 1.0 | 6.0 | 0.00 | 0.00 | 0.00 | 45 | 1007.0 |
| 20260901024502 | 73 | 338 | 7.0 | 12.0 | 0.00 | 0.00 | 0.00 | 44 | 1006.8 |
| 20260901023001 | 73 | 286 | 9.0 | 15.0 | 0.00 | 0.00 | 0.00 | 45 | 1006.7 |
| 20260901021501 | 73 | 270 | 11.0 | 17.0 | 0.00 | 0.00 | 0.00 | 46 | 1006.3 |
| 20260901020101 | 73 | 250 | 10.0 | 14.0 | 0.00 | 0.00 | 0.00 | 48 | 1006.4 |
| 20260901014604 | 75 | 254 | 8.0 | 16.0 | 0.00 | 0.00 | 0.00 | 42 | 1006.5 |
| 20260901013100 | 76 | 261 | 9.0 | 18.0 | 0.00 | 0.00 | 0.00 | 39 | 1006.3 |
| 20260901011601 | 77 | 287 | 12.0 | 21.0 | 0.00 | 0.00 | 0.00 | 37 | 1006.1 |
| 20260901010101 | 79 | 293 | 9.0 | 16.0 | 0.00 | 0.00 | 0.00 | 34 | 1006.0 |
| 20260901004558 | 80 | 277 | 5.0 | 9.0 | 0.00 | 0.00 | 0.00 | 32 | 1005.8 |
| 20260901003100 | 81 | 246 | 3.0 | 7.0 | 0.00 | 0.00 | 0.00 | 33 | 1005.8 |
| 20260901001559 | 81 | 153 | 2.0 | 6.0 | 0.00 | 0.00 | 0.00 | 35 | 1005.8 |
| 20260901000056 | 82 | 183 | 3.0 | 6.0 | 0.00 | 0.00 | 0.00 | 33 | 1005.7 |
| 20260831234559 | 83 | 161 | 1.0 | 5.0 | 0.00 | 0.00 | 0.00 | 34 | 1005.7 |